sensor_id;sensor_type;location;lat;lon;timestamp;pressure;altitude;pressure_sealevel;temperature;humidity
21111;BME280;10713;51.912;4.494;2024-03-17T00:00:18;102270.53;;;7.37;100.00
21111;BME280;10713;51.912;4.494;2024-03-17T00:02:44;102272.28;;;7.40;100.00
21111;BME280;10713;51.912;4.494;2024-03-17T00:05:09;102271.38;;;7.41;100.00
21111;BME280;10713;51.912;4.494;2024-03-17T00:07:35;102272.28;;;7.44;100.00
21111;BME280;10713;51.912;4.494;2024-03-17T00:10:00;102262.59;;;7.50;100.00
21111;BME280;10713;51.912;4.494;2024-03-17T00:12:28;102261.75;;;7.43;100.00
21111;BME280;10713;51.912;4.494;2024-03-17T00:14:53;102257.38;;;7.40;100.00
21111;BME280;10713;51.912;4.494;2024-03-17T00:17:18;102263.53;;;7.42;100.00
21111;BME280;10713;51.912;4.494;2024-03-17T00:19:46;102262.63;;;7.47;100.00
21111;BME280;10713;51.912;4.494;2024-03-17T00:22:11;102260.88;;;7.45;100.00
21111;BME280;10713;51.912;4.494;2024-03-17T00:24:38;102256.53;;;7.44;100.00
21111;BME280;10713;51.912;4.494;2024-03-17T00:27:04;102258.25;;;7.47;100.00
21111;BME280;10713;51.912;4.494;2024-03-17T00:29:29;102254.72;;;7.47;100.00
21111;BME280;10713;51.912;4.494;2024-03-17T00:31:55;102256.47;;;7.49;100.00
21111;BME280;10713;51.912;4.494;2024-03-17T00:34:20;102258.25;;;7.50;100.00
21111;BME280;10713;51.912;4.494;2024-03-17T00:36:46;102256.44;;;7.55;100.00
21111;BME280;10713;51.912;4.494;2024-03-17T00:39:11;102259.94;;;7.57;100.00
21111;BME280;10713;51.912;4.494;2024-03-17T00:41:37;102257.34;;;7.59;100.00
21111;BME280;10713;51.912;4.494;2024-03-17T00:44:03;102253.81;;;7.61;100.00
21111;BME280;10713;51.912;4.494;2024-03-17T00:46:29;102249.44;;;7.62;100.00
21111;BME280;10713;51.912;4.494;2024-03-17T00:48:54;102249.41;;;7.63;100.00
21111;BME280;10713;51.912;4.494;2024-03-17T00:51:20;102239.75;;;7.64;100.00
21111;BME280;10713;51.912;4.494;2024-03-17T00:53:46;102240.66;;;7.64;100.00
21111;BME280;10713;51.912;4.494;2024-03-17T00:56:11;102248.56;;;7.64;100.00
21111;BME280;10713;51.912;4.494;2024-03-17T00:58:36;102231.91;;;7.61;100.00
21111;BME280;10713;51.912;4.494;2024-03-17T01:01:03;102234.53;;;7.62;100.00
21111;BME280;10713;51.912;4.494;2024-03-17T01:03:29;102237.16;;;7.62;100.00
21111;BME280;10713;51.912;4.494;2024-03-17T01:05:54;102233.69;;;7.59;100.00
21111;BME280;10713;51.912;4.494;2024-03-17T01:08:20;102225.78;;;7.57;100.00
21111;BME280;10713;51.912;4.494;2024-03-17T01:10:47;102227.53;;;7.55;100.00
21111;BME280;10713;51.912;4.494;2024-03-17T01:13:15;102218.81;;;7.52;100.00
21111;BME280;10713;51.912;4.494;2024-03-17T01:15:40;102225.81;;;7.50;100.00
21111;BME280;10713;51.912;4.494;2024-03-17T01:18:07;102224.13;;;7.44;100.00
21111;BME280;10713;51.912;4.494;2024-03-17T01:20:34;102217.97;;;7.43;100.00
21111;BME280;10713;51.912;4.494;2024-03-17T01:23:00;102226.75;;;7.44;100.00
21111;BME280;10713;51.912;4.494;2024-03-17T01:25:26;102220.59;;;7.43;100.00
21111;BME280;10713;51.912;4.494;2024-03-17T01:27:53;102209.25;;;7.41;100.00
21111;BME280;10713;51.912;4.494;2024-03-17T01:30:18;102211.88;;;7.38;100.00
21111;BME280;10713;51.912;4.494;2024-03-17T01:32:47;102209.25;;;7.37;100.00
21111;BME280;10713;51.912;4.494;2024-03-17T01:35:12;102203.16;;;7.33;100.00
21111;BME280;10713;51.912;4.494;2024-03-17T01:37:38;102200.50;;;7.32;100.00
21111;BME280;10713;51.912;4.494;2024-03-17T01:40:05;102204.03;;;7.31;100.00
21111;BME280;10713;51.912;4.494;2024-03-17T01:42:33;102199.63;;;7.31;100.00
21111;BME280;10713;51.912;4.494;2024-03-17T01:44:59;102198.78;;;7.26;100.00
21111;BME280;10713;51.912;4.494;2024-03-17T01:47:24;102197.00;;;7.27;100.00
21111;BME280;10713;51.912;4.494;2024-03-17T01:49:51;102199.66;;;7.25;100.00
21111;BME280;10713;51.912;4.494;2024-03-17T01:52:19;102197.91;;;7.26;100.00
21111;BME280;10713;51.912;4.494;2024-03-17T01:54:45;102190.03;;;7.26;100.00
21111;BME280;10713;51.912;4.494;2024-03-17T01:57:13;102192.66;;;7.26;100.00
21111;BME280;10713;51.912;4.494;2024-03-17T01:59:38;102185.66;;;7.26;100.00
21111;BME280;10713;51.912;4.494;2024-03-17T02:02:04;102190.91;;;7.26;100.00
21111;BME280;10713;51.912;4.494;2024-03-17T02:04:30;102184.78;;;7.27;100.00
21111;BME280;10713;51.912;4.494;2024-03-17T02:06:56;102180.41;;;7.23;100.00
21111;BME280;10713;51.912;4.494;2024-03-17T02:09:21;102180.44;;;7.21;100.00
21111;BME280;10713;51.912;4.494;2024-03-17T02:11:47;102168.16;;;7.20;100.00
21111;BME280;10713;51.912;4.494;2024-03-17T02:14:13;102169.94;;;7.17;100.00
21111;BME280;10713;51.912;4.494;2024-03-17T02:16:40;102168.19;;;7.16;100.00
21111;BME280;10713;51.912;4.494;2024-03-17T02:19:05;102169.06;;;7.12;100.00
21111;BME280;10713;51.912;4.494;2024-03-17T02:21:31;102173.47;;;7.13;100.00
21111;BME280;10713;51.912;4.494;2024-03-17T02:23:56;102168.22;;;7.13;100.00
21111;BME280;10713;51.912;4.494;2024-03-17T02:26:23;102169.06;;;7.16;100.00
21111;BME280;10713;51.912;4.494;2024-03-17T02:28:49;102163.78;;;7.19;100.00
21111;BME280;10713;51.912;4.494;2024-03-17T02:31:15;102162.03;;;7.21;100.00
21111;BME280;10713;51.912;4.494;2024-03-17T02:33:42;102155.03;;;7.22;100.00
21111;BME280;10713;51.912;4.494;2024-03-17T02:36:07;102150.66;;;7.22;100.00
21111;BME280;10713;51.912;4.494;2024-03-17T02:38:34;102148.91;;;7.25;100.00
21111;BME280;10713;51.912;4.494;2024-03-17T02:41:18;102158.47;;;7.32;100.00
21111;BME280;10713;51.912;4.494;2024-03-17T02:43:44;102143.59;;;7.32;100.00
21111;BME280;10713;51.912;4.494;2024-03-17T02:46:15;102151.50;;;7.31;100.00
21111;BME280;10713;51.912;4.494;2024-03-17T02:48:41;102137.50;;;7.26;100.00
21111;BME280;10713;51.912;4.494;2024-03-17T02:51:15;102150.63;;;7.29;100.00
21111;BME280;10713;51.912;4.494;2024-03-17T02:53:41;102148.00;;;7.27;100.00
21111;BME280;10713;51.912;4.494;2024-03-17T02:56:07;102139.25;;;7.28;100.00
21111;BME280;10713;51.912;4.494;2024-03-17T02:58:36;102135.75;;;7.28;100.00
21111;BME280;10713;51.912;4.494;2024-03-17T03:01:02;102144.50;;;7.30;100.00
21111;BME280;10713;51.912;4.494;2024-03-17T03:03:29;102140.97;;;7.31;100.00
21111;BME280;10713;51.912;4.494;2024-03-17T03:05:55;102142.72;;;7.32;100.00
21111;BME280;10713;51.912;4.494;2024-03-17T03:08:22;102138.31;;;7.32;100.00
21111;BME280;10713;51.912;4.494;2024-03-17T03:10:47;102135.72;;;7.34;100.00
21111;BME280;10713;51.912;4.494;2024-03-17T03:13:13;102126.06;;;7.34;100.00
21111;BME280;10713;51.912;4.494;2024-03-17T03:15:38;102127.84;;;7.31;100.00
21111;BME280;10713;51.912;4.494;2024-03-17T03:18:04;102119.06;;;7.32;100.00
21111;BME280;10713;51.912;4.494;2024-03-17T03:20:29;102111.19;;;7.32;100.00
21111;BME280;10713;51.912;4.494;2024-03-17T03:22:55;102115.59;;;7.33;100.00
21111;BME280;10713;51.912;4.494;2024-03-17T03:25:21;102101.56;;;7.29;100.00
21111;BME280;10713;51.912;4.494;2024-03-17T03:27:46;102101.56;;;7.29;100.00
21111;BME280;10713;51.912;4.494;2024-03-17T03:30:12;102091.97;;;7.30;100.00
21111;BME280;10713;51.912;4.494;2024-03-17T03:32:37;102104.22;;;7.31;100.00
21111;BME280;10713;51.912;4.494;2024-03-17T03:35:04;102096.31;;;7.34;100.00
21111;BME280;10713;51.912;4.494;2024-03-17T03:37:31;102101.53;;;7.37;100.00
21111;BME280;10713;51.912;4.494;2024-03-17T03:39:57;102099.78;;;7.39;100.00
21111;BME280;10713;51.912;4.494;2024-03-17T03:42:23;102083.09;;;7.43;100.00
21111;BME280;10713;51.912;4.494;2024-03-17T03:44:49;102085.75;;;7.44;100.00
21111;BME280;10713;51.912;4.494;2024-03-17T03:47:14;102083.13;;;7.44;100.00
21111;BME280;10713;51.912;4.494;2024-03-17T03:49:40;102078.69;;;7.47;100.00
21111;BME280;10713;51.912;4.494;2024-03-17T03:52:06;102074.31;;;7.50;100.00
21111;BME280;10713;51.912;4.494;2024-03-17T03:54:31;102068.16;;;7.51;100.00
21111;BME280;10713;51.912;4.494;2024-03-17T03:56:56;102062.91;;;7.53;100.00
21111;BME280;10713;51.912;4.494;2024-03-17T03:59:22;102060.28;;;7.53;100.00
21111;BME280;10713;51.912;4.494;2024-03-17T04:01:47;102047.16;;;7.50;100.00
21111;BME280;10713;51.912;4.494;2024-03-17T04:04:15;102050.69;;;7.50;100.00
21111;BME280;10713;51.912;4.494;2024-03-17T04:06:41;102051.53;;;7.49;100.00
21111;BME280;10713;51.912;4.494;2024-03-17T04:09:06;102056.78;;;7.49;100.00
21111;BME280;10713;51.912;4.494;2024-03-17T04:11:34;102063.78;;;7.53;100.00
21111;BME280;10713;51.912;4.494;2024-03-17T04:14:01;102075.16;;;7.54;100.00
21111;BME280;10713;51.912;4.494;2024-03-17T04:16:29;102072.50;;;7.55;100.00
21111;BME280;10713;51.912;4.494;2024-03-17T04:18:56;102065.53;;;7.54;100.00
21111;BME280;10713;51.912;4.494;2024-03-17T04:21:22;102069.03;;;7.53;100.00
21111;BME280;10713;51.912;4.494;2024-03-17T04:23:47;102068.19;;;7.53;100.00
21111;BME280;10713;51.912;4.494;2024-03-17T04:26:13;102061.16;;;7.53;100.00
21111;BME280;10713;51.912;4.494;2024-03-17T04:28:39;102059.41;;;7.54;100.00
21111;BME280;10713;51.912;4.494;2024-03-17T04:31:05;102055.00;;;7.54;100.00
21111;BME280;10713;51.912;4.494;2024-03-17T04:33:34;102058.56;;;7.50;100.00
21111;BME280;10713;51.912;4.494;2024-03-17T04:36:00;102046.34;;;7.44;100.00
21111;BME280;10713;51.912;4.494;2024-03-17T04:38:26;102050.75;;;7.38;100.00
21111;BME280;10713;51.912;4.494;2024-03-17T04:40:52;102053.38;;;7.38;100.00
21111;BME280;10713;51.912;4.494;2024-03-17T04:43:24;102055.16;;;7.36;100.00
21111;BME280;10713;51.912;4.494;2024-03-17T04:45:59;102056.91;;;7.34;100.00
21111;BME280;10713;51.912;4.494;2024-03-17T04:48:24;102059.53;;;7.34;100.00
21111;BME280;10713;51.912;4.494;2024-03-17T04:50:49;102051.63;;;7.35;100.00
21111;BME280;10713;51.912;4.494;2024-03-17T04:53:15;102044.66;;;7.33;100.00
21111;BME280;10713;51.912;4.494;2024-03-17T04:55:40;102057.81;;;7.33;100.00
21111;BME280;10713;51.912;4.494;2024-03-17T04:58:06;102054.28;;;7.32;100.00
21111;BME280;10713;51.912;4.494;2024-03-17T05:00:31;102046.41;;;7.31;100.00
21111;BME280;10713;51.912;4.494;2024-03-17T05:02:56;102040.31;;;7.26;100.00
21111;BME280;10713;51.912;4.494;2024-03-17T05:05:22;102042.94;;;7.26;100.00
21111;BME280;10713;51.912;4.494;2024-03-17T05:07:48;102040.31;;;7.27;100.00
21111;BME280;10713;51.912;4.494;2024-03-17T05:10:15;102041.19;;;7.26;100.00
21111;BME280;10713;51.912;4.494;2024-03-17T05:12:40;102038.59;;;7.25;100.00
21111;BME280;10713;51.912;4.494;2024-03-17T05:15:06;102046.47;;;7.23;100.00
21111;BME280;10713;51.912;4.494;2024-03-17T05:17:32;102044.72;;;7.25;100.00
21111;BME280;10713;51.912;4.494;2024-03-17T05:19:58;102043.84;;;7.23;100.00
21111;BME280;10713;51.912;4.494;2024-03-17T05:22:23;102050.84;;;7.24;100.00
21111;BME280;10713;51.912;4.494;2024-03-17T05:24:48;102050.84;;;7.22;100.00
21111;BME280;10713;51.912;4.494;2024-03-17T05:27:14;102047.34;;;7.22;100.00
21111;BME280;10713;51.912;4.494;2024-03-17T05:29:39;102047.34;;;7.20;100.00
21111;BME280;10713;51.912;4.494;2024-03-17T05:32:05;102043.84;;;7.21;100.00
21111;BME280;10713;51.912;4.494;2024-03-17T05:34:30;102045.59;;;7.24;100.00
21111;BME280;10713;51.912;4.494;2024-03-17T05:36:56;102036.81;;;7.25;100.00
21111;BME280;10713;51.912;4.494;2024-03-17T05:39:21;102035.94;;;7.26;100.00
21111;BME280;10713;51.912;4.494;2024-03-17T05:41:47;102035.94;;;7.28;100.00
21111;BME280;10713;51.912;4.494;2024-03-17T05:44:14;102028.06;;;7.28;100.00
21111;BME280;10713;51.912;4.494;2024-03-17T05:46:40;102027.16;;;7.29;100.00
21111;BME280;10713;51.912;4.494;2024-03-17T05:49:05;102029.78;;;7.29;100.00
21111;BME280;10713;51.912;4.494;2024-03-17T05:51:32;102025.44;;;7.28;100.00
21111;BME280;10713;51.912;4.494;2024-03-17T05:53:57;102028.91;;;7.27;100.00
21111;BME280;10713;51.912;4.494;2024-03-17T05:56:23;102033.28;;;7.29;100.00
21111;BME280;10713;51.912;4.494;2024-03-17T05:58:49;102035.91;;;7.31;100.00
21111;BME280;10713;51.912;4.494;2024-03-17T06:01:14;102033.28;;;7.31;100.00
21111;BME280;10713;51.912;4.494;2024-03-17T06:03:39;102031.50;;;7.36;100.00
21111;BME280;10713;51.912;4.494;2024-03-17T06:06:06;102033.22;;;7.41;100.00
21111;BME280;10713;51.912;4.494;2024-03-17T06:08:35;102025.28;;;7.46;100.00
21111;BME280;10713;51.912;4.494;2024-03-17T06:11:01;102028.75;;;7.51;100.00
21111;BME280;10713;51.912;4.494;2024-03-17T06:13:27;102036.59;;;7.59;100.00
21111;BME280;10713;51.912;4.494;2024-03-17T06:15:53;102037.44;;;7.62;100.00
21111;BME280;10713;51.912;4.494;2024-03-17T06:18:19;102040.91;;;7.66;100.00
21111;BME280;10713;51.912;4.494;2024-03-17T06:20:46;102031.22;;;7.71;100.00
21111;BME280;10713;51.912;4.494;2024-03-17T06:23:12;102032.13;;;7.70;100.00
21111;BME280;10713;51.912;4.494;2024-03-17T06:25:41;102030.38;;;7.67;100.00
21111;BME280;10713;51.912;4.494;2024-03-17T06:28:08;102028.59;;;7.71;100.00
21111;BME280;10713;51.912;4.494;2024-03-17T06:30:34;102042.59;;;7.72;100.00
21111;BME280;10713;51.912;4.494;2024-03-17T06:33:01;102044.34;;;7.76;100.00
21111;BME280;10713;51.912;4.494;2024-03-17T06:35:26;102023.28;;;7.79;100.00
21111;BME280;10713;51.912;4.494;2024-03-17T06:37:52;102029.34;;;7.84;100.00
21111;BME280;10713;51.912;4.494;2024-03-17T06:40:18;102035.47;;;7.86;100.00
21111;BME280;10713;51.912;4.494;2024-03-17T06:42:43;102027.59;;;7.86;100.00
21111;BME280;10713;51.912;4.494;2024-03-17T06:45:09;102025.78;;;7.91;100.00
21111;BME280;10713;51.912;4.494;2024-03-17T06:47:35;102021.47;;;7.85;100.00
21111;BME280;10713;51.912;4.494;2024-03-17T06:50:02;102021.47;;;7.87;100.00
21111;BME280;10713;51.912;4.494;2024-03-17T06:52:28;102026.66;;;7.93;100.00
21111;BME280;10713;51.912;4.494;2024-03-17T06:54:53;102032.72;;;7.98;100.00
21111;BME280;10713;51.912;4.494;2024-03-17T06:57:19;102027.44;;;8.03;100.00
21111;BME280;10713;51.912;4.494;2024-03-17T06:59:44;102027.38;;;8.09;100.00
21111;BME280;10713;51.912;4.494;2024-03-17T07:02:11;102013.28;;;8.16;100.00
21111;BME280;10713;51.912;4.494;2024-03-17T07:04:40;102021.97;;;8.23;100.00
21111;BME280;10713;51.912;4.494;2024-03-17T07:07:06;102014.88;;;8.31;100.00
21111;BME280;10713;51.912;4.494;2024-03-17T07:09:31;102026.16;;;8.44;100.00
21111;BME280;10713;51.912;4.494;2024-03-17T07:11:56;102029.56;;;8.53;100.00
21111;BME280;10713;51.912;4.494;2024-03-17T07:14:22;102026.84;;;8.60;100.00
21111;BME280;10713;51.912;4.494;2024-03-17T07:16:48;102038.16;;;8.66;100.00
21111;BME280;10713;51.912;4.494;2024-03-17T07:19:13;102035.53;;;8.66;100.00
21111;BME280;10713;51.912;4.494;2024-03-17T07:21:38;102038.16;;;8.66;100.00
21111;BME280;10713;51.912;4.494;2024-03-17T07:24:04;102039.84;;;8.72;100.00
21111;BME280;10713;51.912;4.494;2024-03-17T07:26:32;102040.72;;;8.72;100.00
21111;BME280;10713;51.912;4.494;2024-03-17T07:28:58;102050.31;;;8.78;100.00
21111;BME280;10713;51.912;4.494;2024-03-17T07:31:24;102051.13;;;8.83;100.00
21111;BME280;10713;51.912;4.494;2024-03-17T07:33:49;102045.03;;;8.79;100.00
21111;BME280;10713;51.912;4.494;2024-03-17T07:36:15;102045.06;;;8.76;100.00
21111;BME280;10713;51.912;4.494;2024-03-17T07:38:40;102048.56;;;8.78;100.00
21111;BME280;10713;51.912;4.494;2024-03-17T07:41:06;102045.00;;;8.83;100.00
21111;BME280;10713;51.912;4.494;2024-03-17T07:43:34;102042.34;;;8.81;100.00
21111;BME280;10713;51.912;4.494;2024-03-17T07:46:01;102056.38;;;8.85;100.00
21111;BME280;10713;51.912;4.494;2024-03-17T07:48:28;102056.31;;;8.91;100.00
21111;BME280;10713;51.912;4.494;2024-03-17T07:50:58;102047.41;;;8.98;100.00
21111;BME280;10713;51.912;4.494;2024-03-17T07:53:23;102045.59;;;9.03;100.00
21111;BME280;10713;51.912;4.494;2024-03-17T07:56:10;102047.31;;;9.07;100.00
21111;BME280;10713;51.912;4.494;2024-03-17T07:58:38;102042.88;;;9.09;100.00
21111;BME280;10713;51.912;4.494;2024-03-17T08:01:05;102043.69;;;9.13;100.00
21111;BME280;10713;51.912;4.494;2024-03-17T08:03:33;102039.47;;;9.02;100.00
21111;BME280;10713;51.912;4.494;2024-03-17T08:05:59;102038.56;;;9.03;100.00
21111;BME280;10713;51.912;4.494;2024-03-17T08:08:25;102043.81;;;9.03;100.00
21111;BME280;10713;51.912;4.494;2024-03-17T08:10:51;102042.03;;;9.07;100.00
21111;BME280;10713;51.912;4.494;2024-03-17T08:13:17;102035.84;;;9.10;100.00
21111;BME280;10713;51.912;4.494;2024-03-17T08:15:43;102035.78;;;9.13;100.00
21111;BME280;10713;51.912;4.494;2024-03-17T08:18:09;102037.50;;;9.17;100.00
21111;BME280;10713;51.912;4.494;2024-03-17T08:20:38;102042.69;;;9.23;100.00
21111;BME280;10713;51.912;4.494;2024-03-17T08:23:09;102036.44;;;9.29;100.00
21111;BME280;10713;51.912;4.494;2024-03-17T08:25:36;102039.94;;;9.31;100.00
21111;BME280;10713;51.912;4.494;2024-03-17T08:28:02;102024.09;;;9.32;100.00
21111;BME280;10713;51.912;4.494;2024-03-17T08:30:28;102037.22;;;9.35;100.00
21111;BME280;10713;51.912;4.494;2024-03-17T08:32:53;102032.03;;;9.31;100.00
21111;BME280;10713;51.912;4.494;2024-03-17T08:35:19;102034.72;;;9.28;100.00
21111;BME280;10713;51.912;4.494;2024-03-17T08:37:45;102030.25;;;9.31;100.00
21111;BME280;10713;51.912;4.494;2024-03-17T08:40:11;102026.66;;;9.37;100.00
21111;BME280;10713;51.912;4.494;2024-03-17T08:42:37;102030.06;;;9.43;100.00
21111;BME280;10713;51.912;4.494;2024-03-17T08:45:02;102023.88;;;9.47;100.00
21111;BME280;10713;51.912;4.494;2024-03-17T08:47:28;102018.59;;;9.47;100.00
21111;BME280;10713;51.912;4.494;2024-03-17T08:49:54;102021.16;;;9.52;100.00
21111;BME280;10713;51.912;4.494;2024-03-17T08:52:19;102012.38;;;9.52;100.00
21111;BME280;10713;51.912;4.494;2024-03-17T08:54:46;102007.84;;;9.60;100.00
21111;BME280;10713;51.912;4.494;2024-03-17T08:57:12;102009.44;;;9.70;100.00
21111;BME280;10713;51.912;4.494;2024-03-17T08:59:38;102001.44;;;9.76;100.00
21111;BME280;10713;51.912;4.494;2024-03-17T09:02:03;102002.94;;;9.89;100.00
21111;BME280;10713;51.912;4.494;2024-03-17T09:04:29;101990.53;;;9.96;100.00
21111;BME280;10713;51.912;4.494;2024-03-17T09:06:54;101994.69;;;10.08;100.00
21111;BME280;10713;51.912;4.494;2024-03-17T09:09:22;101993.59;;;10.20;100.00
21111;BME280;10713;51.912;4.494;2024-03-17T09:11:47;101983.09;;;10.17;100.00
21111;BME280;10713;51.912;4.494;2024-03-17T09:14:12;101989.06;;;10.28;100.00
21111;BME280;10713;51.912;4.494;2024-03-17T09:16:38;101985.44;;;10.33;100.00
21111;BME280;10713;51.912;4.494;2024-03-17T09:19:03;101992.97;;;10.53;100.00
21111;BME280;10713;51.912;4.494;2024-03-17T09:21:28;101988.25;;;10.68;100.00
21111;BME280;10713;51.912;4.494;2024-03-17T09:23:54;101977.56;;;10.74;100.00
21111;BME280;10713;51.912;4.494;2024-03-17T09:26:19;101973.91;;;10.79;100.00
21111;BME280;10713;51.912;4.494;2024-03-17T09:28:45;101969.41;;;10.85;100.00
21111;BME280;10713;51.912;4.494;2024-03-17T09:31:11;101957.75;;;10.93;100.00
21111;BME280;10713;51.912;4.494;2024-03-17T09:33:36;101970.66;;;11.05;100.00
21111;BME280;10713;51.912;4.494;2024-03-17T09:36:03;101962.66;;;11.46;100.00
21111;BME280;10713;51.912;4.494;2024-03-17T09:38:31;101965.13;;;11.88;100.00
21111;BME280;10713;51.912;4.494;2024-03-17T09:40:57;101956.59;;;12.09;100.00
21111;BME280;10713;51.912;4.494;2024-03-17T09:43:24;101955.59;;;12.13;100.00
21111;BME280;10713;51.912;4.494;2024-03-17T09:45:50;101956.78;;;12.33;100.00
21111;BME280;10713;51.912;4.494;2024-03-17T09:48:19;101960.19;;;12.38;100.00
21111;BME280;10713;51.912;4.494;2024-03-17T09:50:52;101959.88;;;12.49;100.00
21111;BME280;10713;51.912;4.494;2024-03-17T09:55:47;101956.50;;;12.12;100.00
21111;BME280;10713;51.912;4.494;2024-03-17T09:58:16;101957.28;;;12.16;100.00
21111;BME280;10713;51.912;4.494;2024-03-17T10:00:45;101951.59;;;11.99;100.00
21111;BME280;10713;51.912;4.494;2024-03-17T10:03:10;101960.28;;;12.04;100.00
21111;BME280;10713;51.912;4.494;2024-03-17T10:05:35;101958.00;;;12.23;100.00
21111;BME280;10713;51.912;4.494;2024-03-17T10:08:01;101952.31;;;12.36;100.00
21111;BME280;10713;51.912;4.494;2024-03-17T10:10:27;101944.44;;;12.63;100.00
21111;BME280;10713;51.912;4.494;2024-03-17T10:12:52;101954.75;;;12.72;100.00
21111;BME280;10713;51.912;4.494;2024-03-17T10:15:19;101948.31;;;12.81;100.00
21111;BME280;10713;51.912;4.494;2024-03-17T10:17:45;101949.66;;;12.94;100.00
21111;BME280;10713;51.912;4.494;2024-03-17T10:20:12;101950.28;;;13.02;100.00
21111;BME280;10713;51.912;4.494;2024-03-17T10:22:51;101942.59;;;13.21;100.00
21111;BME280;10713;51.912;4.494;2024-03-17T10:25:22;101940.78;;;13.50;100.00
21111;BME280;10713;51.912;4.494;2024-03-17T10:27:48;101937.91;;;13.83;100.00
21111;BME280;10713;51.912;4.494;2024-03-17T10:30:18;101939.78;;;14.04;100.00
21111;BME280;10713;51.912;4.494;2024-03-17T10:32:45;101947.59;;;14.09;100.00
21111;BME280;10713;51.912;4.494;2024-03-17T10:35:34;101942.53;;;14.01;100.00
21111;BME280;10713;51.912;4.494;2024-03-17T10:38:04;101939.00;;;13.77;100.00
21111;BME280;10713;51.912;4.494;2024-03-17T10:40:31;101948.34;;;13.62;100.00
21111;BME280;10713;51.912;4.494;2024-03-17T10:43:00;101936.91;;;13.60;100.00
21111;BME280;10713;51.912;4.494;2024-03-17T10:45:26;101928.47;;;13.49;100.00
21111;BME280;10713;51.912;4.494;2024-03-17T10:47:56;101933.88;;;13.46;100.00
21111;BME280;10713;51.912;4.494;2024-03-17T10:50:25;101933.38;;;13.35;100.00
21111;BME280;10713;51.912;4.494;2024-03-17T10:53:01;101931.88;;;13.26;100.00
21111;BME280;10713;51.912;4.494;2024-03-17T10:55:32;101926.53;;;12.99;100.00
21111;BME280;10713;51.912;4.494;2024-03-17T10:58:00;101934.84;;;12.87;100.00
21111;BME280;10713;51.912;4.494;2024-03-17T11:00:29;101937.72;;;12.81;100.00
21111;BME280;10713;51.912;4.494;2024-03-17T11:02:55;101936.72;;;12.85;100.00
21111;BME280;10713;51.912;4.494;2024-03-17T11:05:25;101934.97;;;12.84;100.00
21111;BME280;10713;51.912;4.494;2024-03-17T11:07:55;101935.28;;;12.73;100.00
21111;BME280;10713;51.912;4.494;2024-03-17T11:10:27;101930.28;;;12.64;100.00
21111;BME280;10713;51.912;4.494;2024-03-17T11:12:58;101921.38;;;12.37;100.00
21111;BME280;10713;51.912;4.494;2024-03-17T11:20:59;101920.38;;;12.11;100.00
21111;BME280;10713;51.912;4.494;2024-03-17T11:23:30;101937.31;;;12.04;100.00
21111;BME280;10713;51.912;4.494;2024-03-17T11:25:57;101930.47;;;11.97;100.00
21111;BME280;10713;51.912;4.494;2024-03-17T11:34:05;101931.25;;;12.01;100.00
21111;BME280;10713;51.912;4.494;2024-03-17T11:36:35;101925.78;;;12.07;100.00
21111;BME280;10713;51.912;4.494;2024-03-17T11:39:08;101933.63;;;12.10;100.00
21111;BME280;10713;51.912;4.494;2024-03-17T11:41:47;101915.91;;;12.13;100.00
21111;BME280;10713;51.912;4.494;2024-03-17T11:44:18;101920.75;;;12.29;100.00
21111;BME280;10713;51.912;4.494;2024-03-17T11:46:57;101913.34;;;12.40;100.00
21111;BME280;10713;51.912;4.494;2024-03-17T11:49:34;101911.47;;;12.44;100.00
21111;BME280;10713;51.912;4.494;2024-03-17T11:52:23;101906.53;;;12.61;100.00
21111;BME280;10713;51.912;4.494;2024-03-17T11:54:48;101898.16;;;12.75;100.00
21111;BME280;10713;51.912;4.494;2024-03-17T11:57:26;101894.25;;;12.87;100.00
21111;BME280;10713;51.912;4.494;2024-03-17T11:59:52;101892.13;;;12.98;100.00
21111;BME280;10713;51.912;4.494;2024-03-17T12:02:28;101879.19;;;13.15;100.00
21111;BME280;10713;51.912;4.494;2024-03-17T12:04:58;101870.22;;;13.46;100.00
21111;BME280;10713;51.912;4.494;2024-03-17T12:07:24;101877.63;;;13.61;100.00
21111;BME280;10713;51.912;4.494;2024-03-17T12:09:51;101871.66;;;13.80;100.00
21111;BME280;10713;51.912;4.494;2024-03-17T12:12:19;101873.25;;;13.85;100.00
21111;BME280;10713;51.912;4.494;2024-03-17T12:14:45;101864.09;;;13.92;100.00
21111;BME280;10713;51.912;4.494;2024-03-17T12:17:13;101860.44;;;13.96;100.00
21111;BME280;10713;51.912;4.494;2024-03-17T12:19:44;101848.19;;;13.92;100.00
21111;BME280;10713;51.912;4.494;2024-03-17T12:22:16;101852.91;;;13.84;100.00
21111;BME280;10713;51.912;4.494;2024-03-17T12:24:43;101854.06;;;14.01;100.00
21111;BME280;10713;51.912;4.494;2024-03-17T12:27:17;101849.00;;;13.94;100.00
21111;BME280;10713;51.912;4.494;2024-03-17T12:29:42;101847.25;;;13.93;100.00
21111;BME280;10713;51.912;4.494;2024-03-17T12:32:16;101843.09;;;14.10;100.00
21111;BME280;10713;51.912;4.494;2024-03-17T12:34:43;101847.06;;;14.22;100.00
21111;BME280;10713;51.912;4.494;2024-03-17T12:37:15;101847.16;;;14.20;100.00
21111;BME280;10713;51.912;4.494;2024-03-17T12:39:41;101836.44;;;14.22;100.00
21111;BME280;10713;51.912;4.494;2024-03-17T12:42:13;101839.09;;;14.22;100.00
21111;BME280;10713;51.912;4.494;2024-03-17T12:47:25;101831.13;;;14.45;100.00
21111;BME280;10713;51.912;4.494;2024-03-17T12:49:55;101840.41;;;14.33;100.00
21111;BME280;10713;51.912;4.494;2024-03-17T12:52:25;101818.63;;;14.25;100.00
21111;BME280;10713;51.912;4.494;2024-03-17T12:55:03;101823.06;;;14.25;100.00
21111;BME280;10713;51.912;4.494;2024-03-17T12:57:51;101817.94;;;14.20;100.00
21111;BME280;10713;51.912;4.494;2024-03-17T13:00:36;101822.59;;;14.13;100.00
21111;BME280;10713;51.912;4.494;2024-03-17T13:03:06;101818.59;;;14.03;100.00